createdAt,value
2023-01-18T00:01:21.510Z,24.65
2023-01-18T00:03:49.511Z,24.52
2023-01-18T00:06:18.018Z,26.75
2023-01-18T00:08:45.890Z,30.63
2023-01-18T00:11:16.945Z,25.70
2023-01-18T00:13:45.097Z,24.33
2023-01-18T00:16:19.490Z,26.40
2023-01-18T00:18:58.754Z,25.40
2023-01-18T00:21:27.928Z,25.58
2023-01-18T00:23:56.730Z,29.38
2023-01-18T00:26:24.339Z,29.83
2023-01-18T00:28:52.142Z,28.98
2023-01-18T00:31:21.558Z,25.48
2023-01-18T00:33:50.536Z,27.20
2023-01-18T00:36:19.287Z,24.35
2023-01-18T00:38:54.027Z,26.20
2023-01-18T00:41:22.835Z,26.48
2023-01-18T00:43:51.588Z,26.90
2023-01-18T00:46:27.407Z,32.03
2023-01-18T00:48:57.301Z,28.70
2023-01-18T00:51:26.083Z,31.88
2023-01-18T00:53:54.037Z,26.95
2023-01-18T00:56:23.312Z,30.88
2023-01-18T00:58:51.448Z,31.63
2023-01-18T01:01:19.248Z,27.85
2023-01-18T01:04:05.302Z,25.58
2023-01-18T01:06:45.443Z,32.65
2023-01-18T01:09:39.547Z,31.13
2023-01-18T01:12:25.648Z,28.73
2023-01-18T01:15:11.744Z,31.15
2023-01-18T01:17:57.917Z,31.40
2023-01-18T01:20:45.434Z,26.00
2023-01-18T01:23:44.567Z,27.65
2023-01-18T01:26:12.248Z,28.38
2023-01-18T01:28:50.854Z,25.17
2023-01-18T01:31:22.193Z,33.25
2023-01-18T01:33:52.824Z,31.50
2023-01-18T01:36:28.752Z,32.13
2023-01-18T01:39:03.255Z,32.33
2023-01-18T01:41:35.779Z,34.25
2023-01-18T01:44:20.377Z,28.83
2023-01-18T01:46:57.032Z,25.70
2023-01-18T01:49:36.041Z,26.23
2023-01-18T01:54:58.116Z,26.40
2023-01-18T01:57:33.533Z,26.88
2023-01-18T02:00:08.796Z,29.25
2023-01-18T02:02:47.046Z,26.80
2023-01-18T02:05:17.499Z,28.83
2023-01-18T02:07:45.767Z,27.88
2023-01-18T02:10:13.903Z,29.23
2023-01-18T02:12:44.854Z,27.48
2023-01-18T02:15:13.520Z,29.30
2023-01-18T02:18:08.864Z,29.25
2023-01-18T02:21:02.630Z,33.65
2023-01-18T02:24:10.234Z,28.02
2023-01-18T02:27:04.007Z,31.95
2023-01-18T02:29:54.189Z,26.65
2023-01-18T02:33:08.857Z,31.75
2023-01-18T02:35:57.458Z,29.65
2023-01-18T02:38:34.480Z,26.45
2023-01-18T02:41:14.299Z,31.55
2023-01-18T02:44:02.905Z,32.80
2023-01-18T02:46:35.492Z,30.90
2023-01-18T02:49:09.880Z,32.92
2023-01-18T02:51:38.524Z,29.95
2023-01-18T02:54:09.849Z,32.53
2023-01-18T02:56:51.368Z,33.33
2023-01-18T02:59:40.924Z,30.67
2023-01-18T03:02:19.734Z,33.47
2023-01-18T03:04:56.316Z,38.28
2023-01-18T03:07:28.648Z,30.90
2023-01-18T03:09:58.789Z,33.33
2023-01-18T03:12:45.998Z,35.75
2023-01-18T03:15:45.185Z,36.00
2023-01-18T03:21:08.469Z,35.00
2023-01-18T03:23:42.326Z,32.42
2023-01-18T03:26:19.679Z,33.55
2023-01-18T03:29:12.860Z,28.98
2023-01-18T03:32:05.401Z,33.42
2023-01-18T03:35:08.016Z,33.25
2023-01-18T03:37:43.789Z,30.40
2023-01-18T03:40:23.784Z,26.75
2023-01-18T03:43:08.625Z,26.75
2023-01-18T03:45:46.086Z,28.55
2023-01-18T03:48:14.821Z,29.80
2023-01-18T03:51:00.965Z,29.90
2023-01-18T03:53:35.134Z,27.23
2023-01-18T03:56:18.186Z,28.77
2023-01-18T03:58:49.468Z,27.90
2023-01-18T04:01:17.452Z,27.70
2023-01-18T04:03:45.087Z,28.13
2023-01-18T04:06:12.895Z,27.33
2023-01-18T04:08:40.620Z,23.90
2023-01-18T04:11:08.407Z,24.67
2023-01-18T04:13:36.351Z,22.27
2023-01-18T04:16:05.917Z,27.63
2023-01-18T04:18:33.787Z,23.50
2023-01-18T04:21:01.464Z,24.48
2023-01-18T04:23:29.192Z,24.92
2023-01-18T04:25:56.804Z,27.70
2023-01-18T04:28:26.968Z,27.83
2023-01-18T04:30:56.994Z,27.33
2023-01-18T04:33:26.722Z,33.42
2023-01-18T04:35:54.444Z,32.55
2023-01-18T04:38:23.304Z,28.15
2023-01-18T04:40:51.233Z,27.70
2023-01-18T04:43:19.206Z,26.27
2023-01-18T04:45:56.921Z,29.55
2023-01-18T04:48:28.096Z,30.55
2023-01-18T04:50:56.339Z,32.67
2023-01-18T04:53:24.390Z,20.83
2023-01-18T04:55:52.048Z,31.63
2023-01-18T04:58:19.824Z,28.33
2023-01-18T05:00:47.532Z,33.67
2023-01-18T05:03:16.123Z,30.35
2023-01-18T05:05:43.865Z,35.83
2023-01-18T05:08:11.686Z,30.48
2023-01-18T05:10:39.491Z,30.42
2023-01-18T05:13:32.674Z,28.38
2023-01-18T05:16:02.575Z,29.42
2023-01-18T05:18:32.187Z,26.33
2023-01-18T05:21:00.124Z,27.55
2023-01-18T05:23:27.750Z,27.42
2023-01-18T05:25:57.009Z,26.20
2023-01-18T05:28:27.162Z,26.02
2023-01-18T05:30:55.746Z,29.25
2023-01-18T05:33:23.891Z,27.02
2023-01-18T05:35:54.160Z,27.03
2023-01-18T05:38:23.643Z,26.40
2023-01-18T05:40:54.174Z,24.15
2023-01-18T05:43:26.291Z,24.23
2023-01-18T05:45:54.764Z,24.80
2023-01-18T05:48:24.041Z,24.10
2023-01-18T05:50:52.271Z,27.88
2023-01-18T05:53:22.492Z,24.40
2023-01-18T05:56:01.881Z,22.40
2023-01-18T05:58:29.976Z,23.20
2023-01-18T06:00:58.500Z,19.57
2023-01-18T06:03:26.234Z,17.83
2023-01-18T06:05:54.012Z,17.88
2023-01-18T06:08:21.904Z,15.70
2023-01-18T06:10:55.486Z,14.88
2023-01-18T06:13:25.083Z,12.52
2023-01-18T06:15:54.620Z,13.57
2023-01-18T06:18:24.014Z,16.52
2023-01-18T06:20:59.645Z,16.42
2023-01-18T06:23:29.949Z,14.05
2023-01-18T06:25:57.972Z,15.43
2023-01-18T06:28:26.180Z,13.65
2023-01-18T06:30:56.455Z,12.75
2023-01-18T06:33:24.822Z,13.25
2023-01-18T06:35:52.739Z,12.95
2023-01-18T06:38:21.442Z,13.05
2023-01-18T06:40:49.596Z,12.38
2023-01-18T06:43:17.430Z,16.42
2023-01-18T06:45:47.469Z,14.25
2023-01-18T06:48:15.744Z,14.77
2023-01-18T06:50:43.546Z,14.75
2023-01-18T06:53:11.352Z,16.02
2023-01-18T06:55:39.070Z,16.05
2023-01-18T06:58:09.651Z,17.00
2023-01-18T07:00:37.553Z,15.38
2023-01-18T07:03:05.266Z,19.23
2023-01-18T07:05:32.964Z,13.10
2023-01-18T07:08:03.210Z,13.38
2023-01-18T07:10:31.309Z,16.10
2023-01-18T07:12:59.339Z,14.75
2023-01-18T07:15:27.175Z,19.47
2023-01-18T07:17:54.826Z,15.20
2023-01-18T07:20:23.314Z,14.82
2023-01-18T07:22:52.583Z,13.32
2023-01-18T07:25:20.713Z,13.18
2023-01-18T07:27:49.086Z,15.23
2023-01-18T07:30:17.496Z,13.10
2023-01-18T07:32:51.453Z,16.25
2023-01-18T07:35:22.480Z,19.25
2023-01-18T07:37:53.038Z,14.48
2023-01-18T07:40:23.927Z,18.60
2023-01-18T07:42:58.436Z,16.42
2023-01-18T07:45:26.368Z,23.23
2023-01-18T07:47:54.418Z,20.67
2023-01-18T07:50:22.488Z,20.93
2023-01-18T07:52:50.341Z,23.67
2023-01-18T07:55:18.192Z,23.52
2023-01-18T07:57:45.848Z,25.20
2023-01-18T08:00:14.824Z,22.45
2023-01-18T08:02:42.524Z,27.10
2023-01-18T08:05:10.927Z,29.02
2023-01-18T08:07:38.879Z,28.25
2023-01-18T08:10:06.951Z,29.98
2023-01-18T08:12:34.795Z,25.57
2023-01-18T08:15:02.476Z,22.90
2023-01-18T08:17:30.801Z,23.60
2023-01-18T08:19:58.325Z,23.42
2023-01-18T08:22:25.924Z,21.13
2023-01-18T08:24:53.632Z,20.35
2023-01-18T08:27:21.773Z,24.10
2023-01-18T08:29:49.358Z,29.47
2023-01-18T08:32:17.168Z,24.45
2023-01-18T08:34:44.946Z,24.92
2023-01-18T08:37:12.912Z,25.92
2023-01-18T08:39:40.549Z,24.27
2023-01-18T08:42:11.672Z,22.52
2023-01-18T08:44:39.402Z,26.15
2023-01-18T08:47:07.071Z,26.90
2023-01-18T08:49:37.490Z,21.23
2023-01-18T08:52:05.739Z,21.98
2023-01-18T08:54:33.740Z,21.50
2023-01-18T08:57:02.545Z,24.80
2023-01-18T08:59:30.296Z,20.45
2023-01-18T09:01:58.751Z,21.90
2023-01-18T09:04:29.447Z,21.13
2023-01-18T09:06:57.228Z,21.23
2023-01-18T09:09:24.989Z,23.60
2023-01-18T09:11:52.855Z,20.23
2023-01-18T09:14:20.870Z,21.57
2023-01-18T09:16:48.595Z,20.13
2023-01-18T09:19:16.425Z,20.40
2023-01-18T09:21:46.547Z,18.25
2023-01-18T09:24:14.366Z,22.88
2023-01-18T09:26:44.438Z,20.00
2023-01-18T09:29:13.009Z,22.77
2023-01-18T09:31:40.626Z,23.48
2023-01-18T09:34:18.786Z,23.05
2023-01-18T09:39:20.940Z,26.52
2023-01-18T09:42:04.642Z,21.35
2023-01-18T09:44:38.395Z,19.23
2023-01-18T09:47:34.237Z,16.40
2023-01-18T09:50:14.855Z,22.63
2023-01-18T09:53:23.877Z,19.58
2023-01-18T09:56:09.830Z,18.13
2023-01-18T09:58:54.641Z,19.35
2023-01-18T10:01:31.662Z,23.13
2023-01-18T10:04:22.492Z,17.00
2023-01-18T10:06:57.037Z,22.10
2023-01-18T10:09:36.823Z,22.25
2023-01-18T10:12:34.741Z,18.00
2023-01-18T10:15:22.186Z,16.40
2023-01-18T10:17:56.161Z,17.70
2023-01-18T10:20:35.563Z,15.32
2023-01-18T10:23:19.698Z,16.08
2023-01-18T10:26:09.637Z,16.60
2023-01-18T10:28:55.220Z,13.75
2023-01-18T10:31:37.759Z,19.33
2023-01-18T10:34:22.370Z,16.02
2023-01-18T10:37:14.468Z,20.60
2023-01-18T10:39:51.941Z,15.82
2023-01-18T10:42:49.309Z,14.15
2023-01-18T10:45:21.582Z,17.50
2023-01-18T10:47:52.295Z,21.45
2023-01-18T10:50:45.153Z,15.23
2023-01-18T10:53:37.612Z,14.30
2023-01-18T10:56:10.747Z,16.70
2023-01-18T10:58:50.327Z,14.88
2023-01-18T11:01:23.747Z,15.30
2023-01-18T11:04:08.244Z,14.38
2023-01-18T11:06:56.809Z,15.73
2023-01-18T11:09:48.752Z,17.30
2023-01-18T11:12:38.787Z,19.92
2023-01-18T11:15:18.931Z,21.13
2023-01-18T11:18:02.078Z,16.08
2023-01-18T11:20:49.976Z,18.75
2023-01-18T11:23:25.735Z,14.80
2023-01-18T11:25:56.628Z,12.18
2023-01-18T11:28:39.247Z,10.90
2023-01-18T11:31:15.103Z,10.75
2023-01-18T11:34:03.186Z,12.10
2023-01-18T11:36:44.822Z,15.60
2023-01-18T11:39:36.703Z,14.90
2023-01-18T11:42:22.361Z,11.88
2023-01-18T11:44:57.885Z,14.18
2023-01-18T11:47:44.388Z,18.70
2023-01-18T11:50:29.880Z,14.60
2023-01-18T11:53:21.758Z,15.77
2023-01-18T11:56:06.480Z,14.05
2023-01-18T11:58:36.434Z,12.63
2023-01-18T12:01:43.369Z,21.88
2023-01-18T12:04:43.915Z,15.07
2023-01-18T12:07:39.530Z,17.23
2023-01-18T12:10:20.783Z,15.25
2023-01-18T12:13:22.914Z,14.93
2023-01-18T12:16:24.933Z,16.23
2023-01-18T12:19:04.402Z,16.27
2023-01-18T12:22:19.596Z,14.45
2023-01-18T12:25:01.380Z,12.57
2023-01-18T12:27:53.041Z,13.18
2023-01-18T12:31:03.026Z,13.10
2023-01-18T12:33:54.460Z,14.10
2023-01-18T12:36:40.073Z,14.13
2023-01-18T12:39:28.987Z,13.45
2023-01-18T12:42:49.951Z,17.27
2023-01-18T12:45:41.987Z,14.45
2023-01-18T12:48:16.699Z,10.10
2023-01-18T12:50:49.944Z,10.23
2023-01-18T12:53:40.304Z,15.90
2023-01-18T12:56:22.448Z,9.85
2023-01-18T12:59:00.788Z,10.55
2023-01-18T13:01:37.712Z,11.07
2023-01-18T13:04:26.523Z,12.65
2023-01-18T13:07:02.568Z,13.18
2023-01-18T13:09:38.947Z,10.35
2023-01-18T13:12:07.533Z,13.30
2023-01-18T13:15:01.720Z,16.50
2023-01-18T13:17:56.362Z,13.20
2023-01-18T13:20:48.356Z,17.73
2023-01-18T13:23:56.669Z,13.82
2023-01-18T13:26:34.074Z,13.70
2023-01-18T13:29:17.078Z,16.05
2023-01-18T13:31:46.039Z,11.43
2023-01-18T13:34:47.770Z,15.50
2023-01-18T13:37:48.635Z,16.45
2023-01-18T13:40:36.711Z,10.05
2023-01-18T13:43:29.895Z,13.43
2023-01-18T13:46:09.899Z,14.15
2023-01-18T13:49:36.223Z,12.07
2023-01-18T13:52:32.556Z,16.27
2023-01-18T13:55:25.048Z,15.98
2023-01-18T13:57:56.505Z,15.93
2023-01-18T14:00:26.189Z,12.90
2023-01-18T14:03:04.739Z,21.63
2023-01-18T14:05:45.756Z,17.52
2023-01-18T14:08:22.824Z,12.07
2023-01-18T14:10:57.152Z,11.77
2023-01-18T14:13:49.982Z,14.80
2023-01-18T14:16:25.514Z,16.30
2023-01-18T14:19:12.722Z,14.35
2023-01-18T14:22:25.163Z,10.15
2023-01-18T14:25:24.949Z,13.70
2023-01-18T14:28:08.396Z,13.75
2023-01-18T14:30:39.041Z,18.85
2023-01-18T14:33:23.694Z,19.58
2023-01-18T14:36:01.567Z,12.02
2023-01-18T14:38:30.728Z,7.65
2023-01-18T14:41:07.055Z,13.02
2023-01-18T14:43:49.318Z,15.63
2023-01-18T14:46:24.753Z,14.85
2023-01-18T14:48:57.265Z,14.60
2023-01-18T14:51:32.100Z,13.60
2023-01-18T14:54:02.893Z,9.60
2023-01-18T14:56:34.761Z,9.73
2023-01-18T14:59:21.492Z,13.27
2023-01-18T15:02:14.857Z,9.75
2023-01-18T15:04:46.550Z,10.63
2023-01-18T15:07:22.878Z,9.60
2023-01-18T15:09:51.093Z,14.77
2023-01-18T15:12:28.979Z,13.43
2023-01-18T15:15:13.627Z,12.48
2023-01-18T15:17:46.760Z,10.02
2023-01-18T15:20:15.808Z,10.30
2023-01-18T15:25:30.226Z,8.98
2023-01-18T15:28:18.435Z,18.15
2023-01-18T15:30:56.182Z,8.82
2023-01-18T15:33:27.114Z,12.18
2023-01-18T15:35:59.442Z,10.02
2023-01-18T15:38:29.006Z,11.65
2023-01-18T15:41:11.140Z,12.90
2023-01-18T15:43:44.599Z,10.95
2023-01-18T15:46:16.599Z,10.68
2023-01-18T15:48:58.047Z,10.68
2023-01-18T15:51:44.218Z,11.70
2023-01-18T15:54:26.777Z,12.35
2023-01-18T15:56:58.863Z,12.07
2023-01-18T15:59:28.091Z,10.68
2023-01-18T16:02:25.495Z,14.27
2023-01-18T16:05:21.791Z,9.82
2023-01-18T16:07:53.167Z,8.85
2023-01-18T16:10:30.276Z,7.22
2023-01-18T16:13:39.348Z,8.40
2023-01-18T16:18:52.344Z,10.70
2023-01-18T16:21:43.188Z,10.18
2023-01-18T16:24:36.436Z,9.35
2023-01-18T16:27:32.009Z,14.95
2023-01-18T16:30:14.792Z,15.35
2023-01-18T16:32:42.552Z,13.30
2023-01-18T16:35:15.936Z,11.52
2023-01-18T16:37:44.710Z,11.27
2023-01-18T16:40:22.931Z,13.32
2023-01-18T16:43:02.269Z,12.60
2023-01-18T16:45:34.038Z,16.33
2023-01-18T16:48:02.670Z,7.88
2023-01-18T16:50:31.005Z,12.60
2023-01-18T16:52:58.823Z,13.32
2023-01-18T16:55:27.251Z,13.15
2023-01-18T16:58:06.675Z,9.13
2023-01-18T17:01:10.202Z,10.80
2023-01-18T17:03:39.429Z,9.25
2023-01-18T17:06:07.436Z,11.32
2023-01-18T17:08:35.090Z,9.13
2023-01-18T17:11:02.909Z,14.30
2023-01-18T17:13:30.722Z,12.73
2023-01-18T17:15:58.610Z,13.52
2023-01-18T17:18:27.717Z,14.98
2023-01-18T17:23:25.587Z,15.20
2023-01-18T17:25:53.343Z,10.33
2023-01-18T17:28:20.907Z,13.40
2023-01-18T17:30:50.113Z,14.32
2023-01-18T17:33:24.956Z,18.75
2023-01-18T17:35:54.803Z,18.50
2023-01-18T17:38:25.054Z,19.95
2023-01-18T17:40:54.172Z,25.80
2023-01-18T17:43:33.290Z,22.75
2023-01-18T17:46:06.574Z,21.83
2023-01-18T17:48:34.879Z,22.48
2023-01-18T17:51:09.747Z,28.83
2023-01-18T17:53:39.845Z,20.50
2023-01-18T17:56:16.941Z,20.90
2023-01-18T17:58:49.414Z,28.13
2023-01-18T18:01:18.854Z,22.00
2023-01-18T18:03:49.666Z,22.50
2023-01-18T18:06:30.064Z,22.65
2023-01-18T18:09:00.148Z,32.38
2023-01-18T18:11:28.460Z,29.20
2023-01-18T18:13:56.794Z,27.67
2023-01-18T18:16:25.693Z,25.55
2023-01-18T18:18:53.804Z,23.25
2023-01-18T18:21:23.265Z,28.88
2023-01-18T18:23:51.358Z,26.02
2023-01-18T18:26:19.363Z,24.13
2023-01-18T18:28:47.304Z,25.73
2023-01-18T18:31:16.331Z,21.35
2023-01-18T18:33:44.137Z,35.47
2023-01-18T18:36:11.772Z,27.90
2023-01-18T18:38:42.000Z,43.05
2023-01-18T18:41:09.867Z,32.97
2023-01-18T18:43:37.489Z,33.08
2023-01-18T18:46:05.383Z,30.30
2023-01-18T18:48:33.182Z,30.55
2023-01-18T18:51:01.081Z,29.77
2023-01-18T18:53:37.513Z,27.83
2023-01-18T18:56:09.257Z,25.10
2023-01-18T18:58:39.517Z,23.33
2023-01-18T19:01:11.670Z,24.17
2023-01-18T19:03:39.452Z,24.98
2023-01-18T19:06:07.188Z,23.05
2023-01-18T19:08:34.982Z,23.17
2023-01-18T19:11:02.972Z,24.77
2023-01-18T19:13:30.823Z,30.00
2023-01-18T19:15:58.514Z,32.42
2023-01-18T19:18:31.754Z,29.13
2023-01-18T19:20:59.705Z,32.78
2023-01-18T19:23:28.302Z,34.55
2023-01-18T19:25:58.921Z,29.90
2023-01-18T19:28:26.688Z,40.85
2023-01-18T19:30:54.959Z,40.33
2023-01-18T19:33:22.572Z,29.30
2023-01-18T19:35:50.211Z,31.88
2023-01-18T19:38:17.963Z,30.77
2023-01-18T19:40:45.710Z,27.75
2023-01-18T19:43:13.373Z,34.08
2023-01-18T19:45:41.078Z,36.28
2023-01-18T19:48:08.744Z,30.05
2023-01-18T19:50:36.397Z,33.25
2023-01-18T19:53:04.220Z,37.88
2023-01-18T19:55:31.974Z,40.63
2023-01-18T19:58:01.595Z,36.15
2023-01-18T20:00:30.380Z,30.25
2023-01-18T20:03:00.004Z,25.33
2023-01-18T20:05:28.513Z,27.95
2023-01-18T20:07:56.854Z,25.57
2023-01-18T20:10:24.752Z,26.57
2023-01-18T20:12:52.758Z,26.67
2023-01-18T20:15:21.189Z,28.42
2023-01-18T20:17:48.918Z,25.58
2023-01-18T20:20:24.276Z,29.20
2023-01-18T20:23:02.598Z,41.13
2023-01-18T20:25:31.790Z,44.70
2023-01-18T20:30:27.269Z,24.25
2023-01-18T20:32:55.157Z,25.10
2023-01-18T20:35:22.952Z,16.50
2023-01-18T20:37:52.107Z,14.88
2023-01-18T20:42:47.822Z,16.25
2023-01-18T20:45:16.119Z,15.53
2023-01-18T20:47:44.811Z,14.25
2023-01-18T20:50:12.873Z,22.67
2023-01-18T20:52:41.924Z,16.77
2023-01-18T20:55:13.224Z,15.88
2023-01-18T20:57:41.238Z,15.77
2023-01-18T21:00:12.466Z,20.75
2023-01-18T21:02:43.489Z,20.35
2023-01-18T21:05:11.798Z,18.45
2023-01-18T21:07:41.694Z,17.90
2023-01-18T21:10:11.582Z,14.40
2023-01-18T21:12:41.185Z,16.75
2023-01-18T21:15:09.907Z,13.57
2023-01-18T21:17:37.751Z,12.00
2023-01-18T21:20:05.880Z,14.57
2023-01-18T21:22:33.659Z,16.27
2023-01-18T21:25:01.306Z,14.63
2023-01-18T21:27:29.059Z,15.57
2023-01-18T21:29:56.838Z,14.57
2023-01-18T21:32:24.703Z,17.00
2023-01-18T21:34:52.436Z,16.08
2023-01-18T21:37:20.065Z,15.32
2023-01-18T21:39:47.686Z,15.60
2023-01-18T21:42:33.593Z,15.85
2023-01-18T21:45:19.554Z,14.48
2023-01-18T21:47:47.438Z,14.52
2023-01-18T21:50:34.159Z,17.27
2023-01-18T21:53:20.449Z,14.77
2023-01-18T21:55:48.359Z,16.02
2023-01-18T21:58:35.105Z,20.92
2023-01-18T22:01:30.652Z,14.73
2023-01-18T22:04:21.141Z,16.80
2023-01-18T22:06:49.695Z,16.45
2023-01-18T22:09:17.684Z,13.18
2023-01-18T22:11:45.691Z,15.95
2023-01-18T22:14:13.791Z,16.42
2023-01-18T22:16:41.800Z,13.43
2023-01-18T22:19:11.771Z,13.27
2023-01-18T22:21:39.558Z,19.23
2023-01-18T22:24:07.633Z,15.20
2023-01-18T22:26:36.461Z,18.63
2023-01-18T22:29:04.751Z,15.70
2023-01-18T22:31:33.369Z,16.40
2023-01-18T22:34:02.114Z,19.38
2023-01-18T22:36:30.857Z,17.67
2023-01-18T22:38:58.832Z,18.20
2023-01-18T22:41:30.100Z,16.15
2023-01-18T22:43:57.745Z,18.70
2023-01-18T22:46:25.738Z,17.35
2023-01-18T22:48:53.433Z,20.50
2023-01-18T22:51:23.650Z,20.85
2023-01-18T22:53:52.195Z,21.50
2023-01-18T22:56:23.275Z,21.13
2023-01-18T22:58:52.032Z,18.58
2023-01-18T23:01:25.113Z,18.38
2023-01-18T23:03:55.993Z,20.40
2023-01-18T23:06:24.372Z,17.67
2023-01-18T23:08:54.289Z,19.38
2023-01-18T23:11:25.583Z,16.88
2023-01-18T23:14:15.817Z,13.95
2023-01-18T23:17:03.095Z,18.83
2023-01-18T23:19:31.232Z,19.00
2023-01-18T23:21:59.380Z,18.00
2023-01-18T23:24:27.710Z,15.95
2023-01-18T23:26:55.237Z,23.75
2023-01-18T23:29:22.979Z,19.98
2023-01-18T23:31:50.513Z,16.65
2023-01-18T23:34:18.153Z,21.92
2023-01-18T23:36:45.823Z,20.15
2023-01-18T23:39:32.135Z,21.17
2023-01-18T23:42:24.503Z,20.65
2023-01-18T23:45:10.604Z,21.38
2023-01-18T23:47:57.365Z,20.85
2023-01-18T23:50:44.173Z,23.65
2023-01-18T23:53:32.586Z,26.52
2023-01-18T23:56:00.617Z,22.50
2023-01-18T23:58:28.455Z,28.58
